Time;durP1;ratioP1;P1;durP2;ratioP2;P2;SDS_P1;SDS_P2;PMS_P1;PMS_P2;Temp;Humidity;BMP_temperature;BMP_pressure;BME280_temperature;BME280_humidity;BME280_pressure;Samples;Min_cycle;Max_cycle;Signal;HPM_P1;HPM_P2
2024/01/20 00:00:18;;;;;;;479.38;219.55;;;;;;;-0.66;100.00;98982.13;5005392;28;20041;-56
2024/01/20 00:02:44;;;;;;;387.42;214.02;;;;;;;-0.63;100.00;98987.38;5006926;28;20037;-57
2024/01/20 00:05:09;;;;;;;426.77;215.15;;;;;;;-0.60;100.00;98984.16;5005175;28;20525;-56
2024/01/20 00:07:35;;;;;;;367.30;214.75;;;;;;;-0.56;100.00;98978.41;5008698;28;21119;-58
2024/01/20 00:10:01;;;;;;;393.33;213.40;;;;;;;-0.64;100.00;98980.50;5005846;28;20028;-59
2024/01/20 00:12:26;;;;;;;557.42;220.98;;;;;;;-0.60;100.00;98985.00;5004905;28;20143;-58
2024/01/20 00:14:52;;;;;;;409.80;213.60;;;;;;;-0.62;100.00;98995.94;5009192;28;20100;-57
2024/01/20 00:17:17;;;;;;;393.50;209.75;;;;;;;-0.56;100.00;98998.88;5005037;28;20026;-58
2024/01/20 00:19:42;;;;;;;487.67;215.23;;;;;;;-0.30;100.00;98996.91;5007204;28;20355;-58
2024/01/20 00:22:08;;;;;;;371.25;208.40;;;;;;;-0.33;100.00;99004.41;5008009;28;20419;-57
2024/01/20 00:24:33;;;;;;;493.55;217.57;;;;;;;-0.47;100.00;99012.16;5007927;28;20022;-57
2024/01/20 00:26:58;;;;;;;426.20;212.93;;;;;;;-0.50;100.00;99009.44;5007829;28;20400;-57
2024/01/20 00:29:24;;;;;;;511.38;216.90;;;;;;;-0.40;100.00;99011.69;5006730;28;20025;-57
2024/01/20 00:31:49;;;;;;;389.95;209.63;;;;;;;-0.41;100.00;99016.75;5006365;28;20038;-58
2024/01/20 00:34:14;;;;;;;430.13;208.23;;;;;;;-0.46;100.00;99020.69;5007801;28;20099;-57
2024/01/20 00:36:40;;;;;;;392.52;210.73;;;;;;;-0.38;100.00;99031.38;5005772;28;20148;-58
2024/01/20 00:39:05;;;;;;;382.27;207.20;;;;;;;-0.48;100.00;99033.38;5008025;28;20057;-59
2024/01/20 00:41:30;;;;;;;508.70;215.48;;;;;;;-0.46;100.00;99036.94;5004778;28;20041;-59
2024/01/20 00:43:58;;;;;;;408.23;205.70;;;;;;;-0.53;100.00;99039.91;5006673;28;20030;-58
2024/01/20 00:46:24;;;;;;;468.13;214.00;;;;;;;-0.52;100.00;99031.44;5007010;28;20033;-59
2024/01/20 00:48:49;;;;;;;428.10;211.13;;;;;;;-0.45;100.00;99033.56;5007263;28;20021;-58
2024/01/20 00:51:15;;;;;;;394.00;212.48;;;;;;;-0.48;100.00;99025.72;5008181;28;20048;-57
2024/01/20 00:53:40;;;;;;;399.30;211.75;;;;;;;-0.51;100.00;99030.69;5008155;28;20068;-59
2024/01/20 00:56:05;;;;;;;433.70;211.07;;;;;;;-0.53;100.00;99025.47;5008535;28;20125;-58
2024/01/20 00:58:31;;;;;;;479.77;215.93;;;;;;;-0.69;100.00;99033.03;5006934;28;20025;-59
2024/01/20 01:00:57;;;;;;;423.52;211.30;;;;;;;-0.68;100.00;99034.78;5007576;28;20501;-59
2024/01/20 01:03:22;;;;;;;523.75;216.07;;;;;;;-0.56;100.00;99035.50;5006321;28;20300;-57
2024/01/20 01:05:48;;;;;;;419.42;210.15;;;;;;;-0.64;100.00;99026.50;5006239;28;20149;-59
2024/01/20 01:08:13;;;;;;;434.33;210.82;;;;;;;-0.72;100.00;99033.75;5001812;28;20025;-58
2024/01/20 01:10:38;;;;;;;471.40;214.52;;;;;;;-0.68;100.00;99048.47;5002455;28;20473;-59
2024/01/20 01:13:04;;;;;;;414.10;212.77;;;;;;;-0.69;100.00;99054.38;5003575;28;20091;-58
2024/01/20 01:15:30;;;;;;;542.10;217.25;;;;;;;-0.66;100.00;99064.75;5003219;28;20148;-59
2024/01/20 01:17:55;;;;;;;529.15;219.98;;;;;;;-0.46;100.00;99057.38;5002807;28;20449;-59
2024/01/20 01:20:21;;;;;;;486.48;219.40;;;;;;;-0.51;100.00;99055.34;5000985;28;20567;-57
2024/01/20 01:22:46;;;;;;;385.17;210.35;;;;;;;-0.68;100.00;99061.25;5005907;28;20021;-58
2024/01/20 01:25:12;;;;;;;462.75;217.45;;;;;;;-0.55;100.00;99057.72;5000597;28;20029;-57
2024/01/20 01:27:37;;;;;;;535.80;224.48;;;;;;;-0.72;100.00;99048.19;5002189;28;20041;-59
2024/01/20 01:30:04;;;;;;;444.58;217.07;;;;;;;-0.74;100.00;99049.78;5004468;28;20136;-59
2024/01/20 01:32:29;;;;;;;581.00;222.88;;;;;;;-0.73;100.00;99038.75;5000595;28;20596;-58
2024/01/20 01:34:54;;;;;;;438.77;218.13;;;;;;;-0.93;100.00;99044.44;5005304;28;20095;-58
2024/01/20 01:37:19;;;;;;;439.73;215.85;;;;;;;-0.94;100.00;99052.91;5004346;28;20517;-59
2024/01/20 01:39:45;;;;;;;572.03;227.57;;;;;;;-1.02;100.00;99046.47;5000520;28;20034;-58
2024/01/20 01:42:10;;;;;;;409.08;215.05;;;;;;;-0.99;100.00;99050.88;5004304;28;20029;-58
2024/01/20 01:44:36;;;;;;;512.65;220.80;;;;;;;-0.97;100.00;99049.31;5002843;28;20030;-59
2024/01/20 01:47:01;;;;;;;461.75;217.30;;;;;;;-1.07;100.00;99060.63;5002788;28;20746;-58
2024/01/20 01:49:26;;;;;;;519.75;218.52;;;;;;;-0.94;100.00;99063.13;5001076;28;20028;-58
2024/01/20 01:51:52;;;;;;;467.08;222.05;;;;;;;-1.00;100.00;99067.00;5004114;28;20041;-60
2024/01/20 01:54:19;;;;;;;483.10;221.05;;;;;;;-0.88;100.00;99077.94;5002396;28;20018;-59
2024/01/20 01:56:47;;;;;;;422.23;218.10;;;;;;;-0.75;100.00;99083.78;5000668;28;20413;-59
2024/01/20 01:59:14;;;;;;;431.30;216.07;;;;;;;-0.79;100.00;99081.03;5002892;28;20038;-58
2024/01/20 02:01:39;;;;;;;556.42;224.20;;;;;;;-0.71;100.00;99073.81;4999936;28;20248;-59
2024/01/20 02:04:04;;;;;;;415.23;214.55;;;;;;;-0.71;100.00;99073.81;5005525;28;20022;-58
2024/01/20 02:06:30;;;;;;;511.10;218.98;;;;;;;-0.55;100.00;99082.41;5000338;28;20457;-58
2024/01/20 02:08:57;;;;;;;457.52;218.52;;;;;;;-0.60;100.00;99091.47;5002543;28;20088;-59
2024/01/20 02:11:23;;;;;;;451.70;217.75;;;;;;;-0.61;100.00;99092.25;5001633;28;20615;-58
2024/01/20 02:13:49;;;;;;;449.50;221.55;;;;;;;-0.49;100.00;99087.00;5002731;28;20014;-59
2024/01/20 02:16:15;;;;;;;456.90;220.02;;;;;;;-0.39;100.00;99089.28;5001491;28;20030;-58
2024/01/20 02:18:40;;;;;;;542.08;226.35;;;;;;;-0.54;100.00;99084.16;5005065;28;20417;-58
2024/01/20 02:21:05;;;;;;;412.88;216.32;;;;;;;-0.72;100.00;99079.72;5005586;28;20041;-57
2024/01/20 02:23:37;;;;;;;499.70;227.43;;;;;;;-0.88;100.00;99089.81;5006445;28;20344;-59
2024/01/20 02:26:02;;;;;;;430.33;219.98;;;;;;;-1.10;100.00;99081.75;5006259;28;20265;-57
2024/01/20 02:28:27;;;;;;;520.33;230.63;;;;;;;-1.03;100.00;99085.56;5005474;28;20022;-57
2024/01/20 02:30:53;;;;;;;463.63;222.10;;;;;;;-0.75;100.00;99086.34;5007067;28;20493;-57
2024/01/20 02:33:18;;;;;;;445.35;218.90;;;;;;;-0.81;100.00;99085.16;5006053;28;20025;-58
2024/01/20 02:35:43;;;;;;;454.50;217.70;;;;;;;-0.80;100.00;99083.50;5003287;28;21367;-58
2024/01/20 02:38:09;;;;;;;387.15;213.75;;;;;;;-0.80;100.00;99091.16;5004708;28;20029;-59
2024/01/20 02:40:34;;;;;;;531.47;219.00;;;;;;;-0.64;100.00;99090.41;5005528;28;20396;-60
2024/01/20 02:42:59;;;;;;;442.15;222.65;;;;;;;-0.88;100.00;99092.38;5005555;28;20225;-57
2024/01/20 02:45:25;;;;;;;427.42;215.20;;;;;;;-0.54;100.00;99086.72;5004180;28;20575;-56
2024/01/20 02:47:52;;;;;;;482.42;241.85;;;;;;;-0.27;100.00;99094.22;5005588;28;20045;-58
2024/01/20 02:50:18;;;;;;;475.67;223.48;;;;;;;-0.06;100.00;99093.69;5004882;28;20032;-58
2024/01/20 02:52:43;;;;;;;543.20;222.32;;;;;;;0.14;100.00;99082.03;5005341;28;20029;-58
2024/01/20 02:55:09;;;;;;;413.08;218.32;;;;;;;-0.08;100.00;99082.50;5006643;28;20053;-57
2024/01/20 02:57:34;;;;;;;555.72;225.73;;;;;;;-0.12;100.00;99078.00;5005644;28;20116;-56
2024/01/20 02:59:59;;;;;;;419.92;218.00;;;;;;;-0.46;100.00;99082.94;5006649;28;20064;-57
2024/01/20 03:02:24;;;;;;;441.60;217.95;;;;;;;-0.52;100.00;99080.00;5006306;28;20030;-57
2024/01/20 03:04:50;;;;;;;490.10;218.55;;;;;;;-0.44;100.00;99085.59;5005629;28;20044;-58
2024/01/20 03:07:15;;;;;;;421.23;219.15;;;;;;;-0.37;100.00;99086.81;5005158;28;20579;-58
2024/01/20 03:09:40;;;;;;;538.75;226.13;;;;;;;-0.64;100.00;99082.72;5006342;28;20041;-57
2024/01/20 03:12:06;;;;;;;433.65;218.98;;;;;;;-0.71;100.00;99080.63;5003308;28;20052;-57
2024/01/20 03:14:31;;;;;;;539.60;223.02;;;;;;;-0.83;100.00;99085.88;5004089;28;20601;-57
2024/01/20 03:16:57;;;;;;;441.00;213.90;;;;;;;-1.02;100.00;99081.31;5006363;28;20029;-57
2024/01/20 03:19:22;;;;;;;453.27;216.93;;;;;;;-0.76;100.00;99085.44;5005595;28;20033;-58
2024/01/20 03:21:47;;;;;;;434.58;220.43;;;;;;;-0.93;100.00;99085.31;5003524;28;20034;-58
2024/01/20 03:24:17;;;;;;;432.83;218.88;;;;;;;-0.87;100.00;99091.59;5006440;28;20021;-56
2024/01/20 03:26:49;;;;;;;605.47;224.65;;;;;;;-0.72;100.00;99084.84;5002525;28;20037;-57
2024/01/20 03:29:15;;;;;;;445.08;220.68;;;;;;;-0.22;100.00;99082.56;5005546;28;20025;-58
2024/01/20 03:31:41;;;;;;;543.28;224.93;;;;;;;-0.55;100.00;99088.38;5003076;28;20026;-58
2024/01/20 03:34:06;;;;;;;480.95;222.48;;;;;;;-0.92;100.00;99088.78;5004802;28;20021;-58
2024/01/20 03:36:31;;;;;;;490.60;223.25;;;;;;;-1.00;100.00;99095.09;5005946;28;20092;-58
2024/01/20 03:38:57;;;;;;;416.60;210.05;;;;;;;-0.89;100.00;99104.25;5005747;28;20163;-58
2024/01/20 03:41:22;;;;;;;480.25;212.93;;;;;;;-0.83;100.00;99109.75;5005280;28;20391;-57
2024/01/20 03:43:47;;;;;;;405.27;211.07;;;;;;;-0.89;100.00;99122.13;5003380;28;21469;-56
2024/01/20 03:46:17;;;;;;;416.00;214.00;;;;;;;-0.18;100.00;99117.75;5001484;28;20528;-57
2024/01/20 03:48:42;;;;;;;572.72;222.25;;;;;;;-0.65;100.00;99114.19;5004307;28;20072;-56
2024/01/20 03:51:09;;;;;;;417.58;215.75;;;;;;;-0.62;100.00;99110.94;5004104;28;20037;-57
2024/01/20 03:53:34;;;;;;;523.95;222.23;;;;;;;-0.65;100.00;99106.53;5003907;28;20036;-57
2024/01/20 03:56:03;;;;;;;459.35;220.13;;;;;;;-0.64;100.00;99105.72;5002846;28;20063;-58
2024/01/20 03:58:28;;;;;;;428.50;217.15;;;;;;;-0.77;100.00;99111.81;5005380;28;20021;-57
2024/01/20 04:00:54;;;;;;;462.55;215.98;;;;;;;-0.96;100.00;99100.44;5001357;28;20476;-58
2024/01/20 04:03:19;;;;;;;437.98;216.25;;;;;;;-0.79;100.00;99104.03;5004721;28;20531;-58
2024/01/20 04:05:47;;;;;;;527.45;223.35;;;;;;;-0.83;100.00;99111.41;5002974;28;20045;-58
2024/01/20 04:08:12;;;;;;;423.70;215.48;;;;;;;-0.92;100.00;99119.44;5005088;28;20053;-58
2024/01/20 04:10:37;;;;;;;562.00;224.07;;;;;;;-0.99;100.00;99130.94;5003608;28;20453;-57
2024/01/20 04:13:03;;;;;;;407.40;217.05;;;;;;;-1.19;100.00;99125.47;5006283;28;20060;-56
2024/01/20 04:15:28;;;;;;;445.70;217.27;;;;;;;-1.09;100.00;99126.03;5004123;28;20404;-57
2024/01/20 04:17:53;;;;;;;481.13;218.35;;;;;;;-1.15;100.00;99123.13;5005707;28;20148;-57
2024/01/20 04:20:19;;;;;;;434.67;218.45;;;;;;;-1.23;100.00;99123.53;5005207;28;20037;-56
2024/01/20 04:22:44;;;;;;;559.60;218.07;;;;;;;-1.27;100.00;99118.16;5002430;28;20029;-58
2024/01/20 04:25:10;;;;;;;430.50;212.27;;;;;;;-1.46;100.00;99122.09;5004712;28;20368;-58
2024/01/20 04:27:40;;;;;;;498.05;218.32;;;;;;;-1.49;100.00;99122.78;5002033;28;20021;-58
2024/01/20 04:30:07;;;;;;;416.02;212.57;;;;;;;-1.45;100.00;99123.84;5003210;28;20434;-57
2024/01/20 04:32:32;;;;;;;420.48;214.77;;;;;;;-1.44;100.00;99116.28;5002686;28;20580;-57
2024/01/20 04:34:57;;;;;;;433.20;215.18;;;;;;;-1.35;100.00;99123.66;5005895;28;20518;-59
2024/01/20 04:37:23;;;;;;;466.85;215.10;;;;;;;-1.46;100.00;99130.63;5004167;28;20102;-57
2024/01/20 04:39:48;;;;;;;639.70;227.90;;;;;;;-1.40;100.00;99135.25;5001101;28;20128;-57
2024/01/20 04:42:13;;;;;;;438.25;217.10;;;;;;;-1.57;100.00;99144.38;5004507;28;20252;-58
2024/01/20 04:44:39;;;;;;;567.75;222.73;;;;;;;-1.31;100.00;99138.38;5004051;28;20304;-57
2024/01/20 04:47:05;;;;;;;393.77;214.60;;;;;;;-1.40;100.00;99148.00;5002966;28;20034;-58
2024/01/20 04:49:31;;;;;;;393.05;215.73;;;;;;;-1.40;100.00;99153.09;5005249;28;20029;-57
2024/01/20 04:52:01;;;;;;;452.77;219.82;;;;;;;-1.52;100.00;99158.31;5000452;28;20030;-58
2024/01/20 04:54:27;;;;;;;410.38;215.50;;;;;;;-1.44;100.00;99159.66;5003448;28;20049;-58
2024/01/20 04:56:52;;;;;;;431.45;213.38;;;;;;;-1.45;100.00;99168.13;5002487;28;21772;-59
2024/01/20 04:59:17;;;;;;;465.20;213.80;;;;;;;-1.56;100.00;99169.09;5005394;28;20048;-58
2024/01/20 05:01:43;;;;;;;527.30;218.85;;;;;;;-1.47;100.00;99173.91;5001628;28;20057;-58
2024/01/20 05:04:08;;;;;;;419.58;207.13;;;;;;;-1.51;100.00;99170.28;5004099;28;20132;-57
2024/01/20 05:06:33;;;;;;;441.05;209.57;;;;;;;-1.49;100.00;99181.47;5003244;28;20033;-57
2024/01/20 05:08:58;;;;;;;415.73;206.20;;;;;;;-1.49;100.00;99185.72;5003708;28;20030;-58
2024/01/20 05:11:24;;;;;;;441.35;212.30;;;;;;;-1.60;100.00;99195.22;5001832;28;20086;-57
2024/01/20 05:13:49;;;;;;;597.00;222.38;;;;;;;-1.47;100.00;99196.88;5000962;28;20021;-59
2024/01/20 05:16:15;;;;;;;408.80;206.45;;;;;;;-1.45;100.00;99185.09;5003997;28;20034;-58
2024/01/20 05:18:41;;;;;;;487.45;215.75;;;;;;;-1.48;100.00;99190.03;5003499;28;20032;-59
2024/01/20 05:21:12;;;;;;;451.35;211.43;;;;;;;-1.63;100.00;99202.69;5003886;28;20053;-57
2024/01/20 05:23:37;;;;;;;466.25;212.20;;;;;;;-1.63;100.00;99202.69;5003509;28;20113;-58
2024/01/20 05:26:03;;;;;;;434.17;206.75;;;;;;;-1.70;100.00;99193.75;5003670;28;20242;-58
2024/01/20 05:28:28;;;;;;;461.70;212.20;;;;;;;-1.58;100.00;99196.19;5002958;28;20031;-59
2024/01/20 05:30:54;;;;;;;460.02;214.98;;;;;;;-1.46;100.00;99202.09;4999848;28;20107;-57
2024/01/20 05:33:19;;;;;;;415.90;211.10;;;;;;;-1.58;100.00;99206.41;5002785;28;20037;-58
2024/01/20 05:35:44;;;;;;;548.00;220.23;;;;;;;-1.46;100.00;99202.09;5002841;28;20501;-57
2024/01/20 05:38:09;;;;;;;432.10;214.93;;;;;;;-1.53;100.00;99211.81;5003891;28;20036;-58
2024/01/20 05:40:35;;;;;;;411.63;210.70;;;;;;;-1.50;100.00;99212.88;5002384;28;20052;-59
2024/01/20 05:43:00;;;;;;;457.50;213.50;;;;;;;-1.62;100.00;99207.00;4999394;28;20030;-58
2024/01/20 05:45:25;;;;;;;398.40;214.38;;;;;;;-1.54;100.00;99218.56;5003166;28;20393;-59
2024/01/20 05:47:51;;;;;;;518.45;216.77;;;;;;;-1.57;100.00;99209.06;5000854;28;20029;-58
2024/01/20 05:50:16;;;;;;;443.50;217.85;;;;;;;-1.72;100.00;99214.06;5001737;28;20064;-58
2024/01/20 05:52:42;;;;;;;524.72;220.60;;;;;;;-1.88;100.00;99229.13;5003067;28;20120;-58
2024/01/20 05:55:07;;;;;;;412.98;214.07;;;;;;;-1.61;100.00;99230.06;5007330;28;20018;-59
2024/01/20 05:57:32;;;;;;;406.33;213.25;;;;;;;-1.78;100.00;99231.50;5007253;28;20126;-59
2024/01/20 05:59:58;;;;;;;434.48;215.63;;;;;;;-1.76;100.00;99234.16;5005026;28;20401;-58
2024/01/20 06:02:23;;;;;;;419.58;210.57;;;;;;;-1.78;100.00;99236.59;5005855;28;20948;-59
2024/01/20 06:04:48;;;;;;;556.22;219.88;;;;;;;-1.77;100.00;99247.69;5005657;28;20033;-59
2024/01/20 06:07:14;;;;;;;410.27;210.10;;;;;;;-1.97;100.00;99244.69;5008033;28;20651;-59
2024/01/20 06:09:39;;;;;;;470.10;216.13;;;;;;;-1.98;100.00;99246.38;5003797;28;20029;-58
2024/01/20 06:12:05;;;;;;;432.27;213.75;;;;;;;-1.85;100.00;99244.63;5006614;28;20055;-58
2024/01/20 06:14:30;;;;;;;369.55;211.05;;;;;;;-1.74;100.00;99247.91;5006494;28;20056;-59
2024/01/20 06:16:56;;;;;;;531.90;217.18;;;;;;;-1.74;100.00;99251.31;5005875;28;20033;-57
2024/01/20 06:19:21;;;;;;;492.73;217.07;;;;;;;-1.60;100.00;99253.91;5006017;28;20021;-58
2024/01/20 06:21:46;;;;;;;512.55;212.98;;;;;;;-1.89;100.00;99252.88;5005277;28;20121;-58
2024/01/20 06:24:12;;;;;;;413.13;211.30;;;;;;;-1.86;100.00;99260.69;5006736;28;20056;-57
2024/01/20 06:26:37;;;;;;;435.48;211.18;;;;;;;-1.76;100.00;99275.84;5005183;28;20133;-57
2024/01/20 06:29:03;;;;;;;441.13;214.85;;;;;;;-1.64;100.00;99274.91;5004055;28;20025;-58
2024/01/20 06:31:28;;;;;;;426.52;212.63;;;;;;;-2.03;100.00;99277.44;5005902;28;20331;-58
2024/01/20 06:33:54;;;;;;;503.25;219.60;;;;;;;-2.09;100.00;99270.25;5006157;28;20228;-58
2024/01/20 06:36:21;;;;;;;436.40;214.68;;;;;;;-1.85;100.00;99273.56;5005601;28;20034;-58
2024/01/20 06:38:49;;;;;;;546.40;248.05;;;;;;;-2.10;100.00;99273.59;5001214;28;20101;-58
2024/01/20 06:41:15;;;;;;;436.27;215.75;;;;;;;-2.21;100.00;99270.31;5006970;28;20390;-59
2024/01/20 06:43:40;;;;;;;406.00;222.07;;;;;;;-2.52;100.00;99270.75;5005425;28;20078;-58
2024/01/20 06:46:07;;;;;;;411.60;212.85;;;;;;;-2.47;100.00;99269.41;5007826;28;20501;-59
2024/01/20 06:48:33;;;;;;;408.98;214.73;;;;;;;-2.57;100.00;99280.63;5005448;28;20025;-59
2024/01/20 06:51:00;;;;;;;412.70;213.63;;;;;;;-2.39;100.00;99280.13;5005049;28;20306;-59
2024/01/20 06:53:29;;;;;;;419.23;216.82;;;;;;;-2.38;100.00;99281.88;5005967;28;20592;-58
2024/01/20 06:55:55;;;;;;;552.45;219.52;;;;;;;-2.44;100.00;99277.28;5005084;28;20043;-58
2024/01/20 06:58:21;;;;;;;424.85;217.95;;;;;;;-2.44;100.00;99282.38;5006500;28;20026;-58
2024/01/20 07:00:46;;;;;;;508.67;216.07;;;;;;;-2.52;100.00;99286.03;5004244;28;20057;-59
2024/01/20 07:03:12;;;;;;;442.77;215.68;;;;;;;-2.41;100.00;99297.84;5004888;28;20047;-59
2024/01/20 07:05:37;;;;;;;412.60;214.18;;;;;;;-2.53;100.00;99297.88;5005624;28;20030;-59
2024/01/20 07:08:04;;;;;;;444.58;214.68;;;;;;;-2.51;100.00;99295.44;5004104;28;20038;-57
2024/01/20 07:10:29;;;;;;;426.33;215.15;;;;;;;-2.58;100.00;99304.31;5005658;28;20029;-58
2024/01/20 07:12:54;;;;;;;544.28;223.93;;;;;;;-2.58;100.00;99311.06;5006482;28;20099;-58
2024/01/20 07:15:20;;;;;;;392.38;215.57;;;;;;;-2.12;100.00;99315.94;5004556;28;20444;-58
2024/01/20 07:17:45;;;;;;;493.50;222.80;;;;;;;-2.08;100.00;99317.03;5002570;28;20129;-59
2024/01/20 07:20:11;;;;;;;388.52;215.45;;;;;;;-2.25;100.00;99314.22;5005080;28;20029;-59
2024/01/20 07:22:36;;;;;;;398.65;216.57;;;;;;;-2.20;100.00;99307.75;5004848;28;20021;-58
2024/01/20 07:25:02;;;;;;;420.38;216.52;;;;;;;-2.31;100.00;99317.22;5005218;28;20203;-58
2024/01/20 07:27:28;;;;;;;391.15;212.95;;;;;;;-2.38;100.00;99325.19;5006217;28;20219;-61
2024/01/20 07:29:53;;;;;;;616.20;225.98;;;;;;;-2.44;100.00;99327.34;5002553;28;20065;-57
2024/01/20 07:32:19;;;;;;;428.45;215.95;;;;;;;-2.54;100.00;99325.81;5006986;28;20046;-57
2024/01/20 07:34:45;;;;;;;430.45;216.88;;;;;;;-2.53;100.00;99320.81;5005338;28;20515;-57
2024/01/20 07:37:10;;;;;;;397.90;214.35;;;;;;;-2.47;100.00;99322.03;5005497;28;20029;-58
2024/01/20 07:39:35;;;;;;;407.52;216.45;;;;;;;-2.54;100.00;99323.25;5005479;28;20432;-58
2024/01/20 07:42:01;;;;;;;539.70;219.82;;;;;;;-2.57;100.00;99326.47;5003883;28;20341;-58
2024/01/20 07:44:26;;;;;;;411.00;215.88;;;;;;;-2.72;100.00;99330.50;5006619;28;20036;-57
2024/01/20 07:46:51;;;;;;;572.50;221.82;;;;;;;-2.69;100.00;99335.78;5005005;28;20437;-58
2024/01/20 07:49:17;;;;;;;419.50;214.57;;;;;;;-2.65;100.00;99331.03;5004983;28;20112;-57
2024/01/20 07:51:42;;;;;;;408.85;212.10;;;;;;;-2.32;100.00;99335.84;5003408;28;20041;-58
2024/01/20 07:54:09;;;;;;;428.42;219.15;;;;;;;-2.20;100.00;99342.59;5003542;28;20129;-58
2024/01/20 07:56:34;;;;;;;388.15;214.68;;;;;;;-2.39;100.00;99338.72;5005674;28;20705;-59
2024/01/20 07:58:59;;;;;;;510.60;226.57;;;;;;;-2.53;100.00;99338.66;4999834;28;20634;-59
2024/01/20 08:01:25;;;;;;;449.83;217.93;;;;;;;-2.36;100.00;99346.59;5003748;28;20099;-59
2024/01/20 08:03:53;;;;;;;515.63;217.68;;;;;;;-2.34;100.00;99349.25;5005674;28;20028;-60
2024/01/20 08:06:18;;;;;;;388.63;215.07;;;;;;;-2.12;100.00;99351.63;5003712;28;20516;-59
2024/01/20 08:08:44;;;;;;;457.85;219.57;;;;;;;-1.97;100.00;99351.78;5003050;28;20311;-59
2024/01/20 08:11:10;;;;;;;412.58;218.10;;;;;;;-2.11;100.00;99363.63;5005765;28;20037;-58
2024/01/20 08:13:35;;;;;;;417.58;220.85;;;;;;;-2.07;100.00;99360.50;5005439;28;20028;-58
2024/01/20 08:16:01;;;;;;;583.42;230.80;;;;;;;-1.80;100.00;99352.97;5002626;28;20045;-59
2024/01/20 08:18:26;;;;;;;411.50;216.40;;;;;;;-1.58;100.00;99364.63;5004267;28;20032;-59
2024/01/20 08:20:51;;;;;;;581.92;229.38;;;;;;;-1.40;100.00;99367.53;5003109;28;20061;-58
2024/01/20 08:23:17;;;;;;;466.65;221.65;;;;;;;-1.58;100.00;99367.16;5003302;28;20124;-58
2024/01/20 08:25:42;;;;;;;428.92;219.15;;;;;;;-1.61;100.00;99374.59;5007400;28;20037;-58
2024/01/20 08:28:07;;;;;;;451.77;223.25;;;;;;;-1.79;100.00;99376.81;5002972;28;20456;-60
2024/01/20 08:30:33;;;;;;;437.48;215.63;;;;;;;-1.21;100.00;99374.72;5004115;28;20148;-59
2024/01/20 08:32:58;;;;;;;530.92;223.95;;;;;;;-1.40;100.00;99377.72;5003942;28;20113;-59
2024/01/20 08:35:23;;;;;;;430.92;218.23;;;;;;;-1.23;100.00;99386.50;5002726;28;20380;-59
2024/01/20 08:37:49;;;;;;;476.73;222.00;;;;;;;-1.36;100.00;99382.25;5002858;28;20024;-58
2024/01/20 08:40:14;;;;;;;455.85;218.90;;;;;;;-1.08;100.00;99380.66;5003258;28;20050;-58
2024/01/20 08:42:39;;;;;;;450.88;220.52;;;;;;;-1.00;100.00;99374.34;5004635;28;20029;-59
2024/01/20 08:45:05;;;;;;;565.17;226.68;;;;;;;-1.00;100.00;99369.22;5002636;28;20040;-58
2024/01/20 08:47:30;;;;;;;419.75;217.57;;;;;;;-0.82;100.00;99373.78;5005178;28;20033;-58
2024/01/20 08:49:56;;;;;;;594.45;228.40;;;;;;;-0.93;100.00;99370.50;5002021;28;20138;-59
2024/01/20 08:52:21;;;;;;;481.50;217.70;;;;;;;-0.78;100.00;99375.72;5004278;28;20033;-59
2024/01/20 08:54:47;;;;;;;429.10;214.10;;;;;;;-0.60;100.00;99377.72;5004823;28;20054;-57
2024/01/20 08:57:12;;;;;;;412.10;219.73;;;;;;;-0.47;100.00;99385.38;5002892;28;20222;-57
2024/01/20 08:59:38;;;;;;;478.58;221.10;;;;;;;-0.62;100.00;99387.84;5003435;28;20022;-56
2024/01/20 09:02:05;;;;;;;513.15;220.63;;;;;;;-0.20;100.00;99382.78;4997390;28;20456;-57
2024/01/20 09:04:30;;;;;;;371.23;213.15;;;;;;;-0.36;100.00;99380.94;5006858;28;20048;-58
2024/01/20 09:06:55;;;;;;;460.02;220.18;;;;;;;-0.40;100.00;99384.09;5006876;28;20156;-58
2024/01/20 09:09:21;;;;;;;401.52;215.35;;;;;;;-0.42;100.00;99389.09;5008583;28;20028;-58
2024/01/20 09:11:47;;;;;;;413.55;222.02;;;;;;;-0.31;100.00;99389.78;5007766;28;20156;-56
2024/01/20 09:14:12;;;;;;;431.88;221.18;;;;;;;-0.63;100.00;99392.84;5008203;28;20060;-58
2024/01/20 09:16:37;;;;;;;340.35;217.23;;;;;;;-0.74;100.00;99395.59;5009062;28;20333;-57
2024/01/20 09:19:03;;;;;;;444.42;222.13;;;;;;;-1.14;100.00;99393.00;5008429;28;20036;-59
2024/01/20 09:21:28;;;;;;;410.17;216.90;;;;;;;-0.55;100.00;99395.09;5008880;28;20409;-59
2024/01/20 09:23:53;;;;;;;454.60;221.90;;;;;;;-0.09;100.00;99403.00;5006612;28;20072;-58
2024/01/20 09:26:19;;;;;;;389.98;221.13;;;;;;;-0.15;100.00;99412.06;5007603;28;20041;-58
2024/01/20 09:28:44;;;;;;;438.90;221.50;;;;;;;-0.20;100.00;99412.56;5008499;28;20029;-59
2024/01/20 09:31:09;;;;;;;354.13;219.02;;;;;;;-0.13;100.00;99419.84;5008306;28;20121;-58
2024/01/20 09:33:35;;;;;;;389.88;218.35;;;;;;;0.60;100.00;99424.22;5008232;28;20112;-58
2024/01/20 09:36:02;;;;;;;495.73;221.25;;;;;;;0.12;100.00;99422.25;5006017;28;20655;-59
2024/01/20 09:38:28;;;;;;;387.33;220.02;;;;;;;-0.50;100.00;99426.06;5009646;28;20034;-58
2024/01/20 09:40:58;;;;;;;449.17;219.15;;;;;;;-0.05;100.00;99420.31;5006472;28;20049;-58
2024/01/20 09:43:23;;;;;;;452.02;219.65;;;;;;;0.07;100.00;99413.41;5006104;28;20297;-59
2024/01/20 09:45:49;;;;;;;402.75;218.95;;;;;;;0.10;100.00;99420.38;5007953;28;20038;-58
2024/01/20 09:48:15;;;;;;;399.25;214.65;;;;;;;0.38;100.00;99424.66;5007334;28;20354;-59
2024/01/20 09:50:40;;;;;;;450.98;220.00;;;;;;;0.14;100.00;99427.47;5007425;28;20037;-58
2024/01/20 09:53:16;;;;;;;443.77;216.15;;;;;;;0.09;100.00;99423.75;5007760;28;20076;-58
2024/01/20 09:55:43;;;;;;;446.02;215.60;;;;;;;0.18;100.00;99426.84;5008607;28;20029;-57
2024/01/20 09:58:13;;;;;;;507.10;220.45;;;;;;;-0.18;100.00;99421.25;5007452;28;20025;-59
2024/01/20 10:00:39;;;;;;;406.38;217.85;;;;;;;0.02;100.00;99434.38;5005905;28;20034;-58
2024/01/20 10:03:07;;;;;;;510.73;224.25;;;;;;;-0.08;100.00;99432.94;5007528;28;20037;-58
2024/01/20 10:05:33;;;;;;;391.65;220.52;;;;;;;0.11;100.00;99435.84;5024874;28;20049;-60
2024/01/20 10:07:59;;;;;;;523.55;225.82;;;;;;;0.12;100.00;99441.84;5007810;28;20125;-59
2024/01/20 10:10:25;;;;;;;435.60;218.90;;;;;;;-0.04;100.00;99437.47;5007562;28;20045;-58
2024/01/20 10:12:51;;;;;;;421.33;219.02;;;;;;;-0.02;100.00;99443.53;5010309;28;20033;-58
2024/01/20 10:15:21;;;;;;;397.92;218.68;;;;;;;0.37;100.00;99438.25;5009627;28;20173;-59
2024/01/20 10:17:47;;;;;;;424.23;216.27;;;;;;;0.83;100.00;99440.09;5006882;28;20329;-58
2024/01/20 10:20:23;;;;;;;409.33;222.18;;;;;;;0.85;100.00;99437.63;5006333;28;20029;-57
2024/01/20 10:22:49;;;;;;;447.73;223.52;;;;;;;0.56;100.00;99441.91;5007348;28;20022;-59
2024/01/20 10:25:19;;;;;;;427.65;224.75;;;;;;;0.68;100.00;99436.63;5008339;28;20022;-57
2024/01/20 10:27:49;;;;;;;417.27;227.80;;;;;;;1.50;100.00;99428.53;5008332;28;20509;-59
2024/01/20 10:30:16;;;;;;;436.02;226.93;;;;;;;0.78;100.00;99431.28;5005789;28;20045;-58
2024/01/20 10:32:41;;;;;;;417.70;226.13;;;;;;;1.20;100.00;99431.13;5013246;28;20025;-58
2024/01/20 10:35:10;;;;;;;444.05;223.35;;;;;;;0.98;100.00;99426.41;5007300;28;20449;-59
2024/01/20 10:37:42;;;;;;;413.45;222.15;;;;;;;0.62;100.00;99425.22;5008676;28;20065;-59
2024/01/20 10:40:12;;;;;;;477.90;225.80;;;;;;;0.60;100.00;99424.22;5008935;28;20025;-58
2024/01/20 10:42:43;;;;;;;437.38;223.95;;;;;;;0.73;100.00;99419.84;5013673;28;20075;-57
2024/01/20 10:45:10;;;;;;;436.43;218.00;;;;;;;0.88;100.00;99417.31;5011392;28;20497;-59
2024/01/20 10:47:37;;;;;;;400.33;213.48;;;;;;;2.58;100.00;99413.69;5012709;28;20606;-59